sensor_id;sensor_type;location;lat;lon;timestamp;P1;durP1;ratioP1;P2;durP2;ratioP2
34914;SDS011;21125;48.630;9.276;2022-08-01T00:02:11;8.23;;;4.88;;
34914;SDS011;21125;48.630;9.276;2022-08-01T00:04:37;4.32;;;4.03;;
34914;SDS011;21125;48.630;9.276;2022-08-01T00:07:03;5.03;;;4.63;;
34914;SDS011;21125;48.630;9.276;2022-08-01T00:09:29;4.63;;;4.22;;
34914;SDS011;21125;48.630;9.276;2022-08-01T00:11:55;4.20;;;3.90;;
34914;SDS011;21125;48.630;9.276;2022-08-01T00:14:21;4.75;;;4.32;;
34914;SDS011;21125;48.630;9.276;2022-08-01T00:16:47;4.45;;;4.05;;
34914;SDS011;21125;48.630;9.276;2022-08-01T00:19:13;4.43;;;3.88;;
34914;SDS011;21125;48.630;9.276;2022-08-01T00:21:39;5.00;;;4.60;;
34914;SDS011;21125;48.630;9.276;2022-08-01T00:24:05;4.40;;;3.88;;
34914;SDS011;21125;48.630;9.276;2022-08-01T00:26:31;3.80;;;3.50;;
34914;SDS011;21125;48.630;9.276;2022-08-01T00:28:57;4.43;;;4.03;;
34914;SDS011;21125;48.630;9.276;2022-08-01T00:31:23;4.53;;;4.13;;
34914;SDS011;21125;48.630;9.276;2022-08-01T00:33:49;4.50;;;4.10;;
34914;SDS011;21125;48.630;9.276;2022-08-01T00:36:15;3.88;;;3.58;;
34914;SDS011;21125;48.630;9.276;2022-08-01T00:38:41;5.95;;;4.25;;
34914;SDS011;21125;48.630;9.276;2022-08-01T00:41:07;4.65;;;4.22;;
34914;SDS011;21125;48.630;9.276;2022-08-01T00:43:32;4.20;;;3.90;;
34914;SDS011;21125;48.630;9.276;2022-08-01T00:45:58;4.75;;;4.43;;
34914;SDS011;21125;48.630;9.276;2022-08-01T00:48:24;4.13;;;3.83;;
34914;SDS011;21125;48.630;9.276;2022-08-01T00:50:50;4.40;;;4.10;;
34914;SDS011;21125;48.630;9.276;2022-08-01T00:53:16;4.65;;;4.15;;
34914;SDS011;21125;48.630;9.276;2022-08-01T00:55:42;5.05;;;3.50;;
34914;SDS011;21125;48.630;9.276;2022-08-01T00:58:08;4.68;;;4.25;;
34914;SDS011;21125;48.630;9.276;2022-08-01T01:00:35;3.97;;;3.60;;
34914;SDS011;21125;48.630;9.276;2022-08-01T01:03:01;3.90;;;3.58;;
34914;SDS011;21125;48.630;9.276;2022-08-01T01:05:27;3.80;;;3.50;;
34914;SDS011;21125;48.630;9.276;2022-08-01T01:07:54;3.75;;;3.45;;
34914;SDS011;21125;48.630;9.276;2022-08-01T01:12:55;4.10;;;3.80;;
34914;SDS011;21125;48.630;9.276;2022-08-01T01:20:27;7.13;;;3.95;;
34914;SDS011;21125;48.630;9.276;2022-08-01T01:23:10;3.97;;;3.55;;
34914;SDS011;21125;48.630;9.276;2022-08-01T01:31:23;3.58;;;3.38;;
34914;SDS011;21125;48.630;9.276;2022-08-01T01:33:51;3.20;;;3.00;;
34914;SDS011;21125;48.630;9.276;2022-08-01T01:36:18;4.10;;;3.78;;
34914;SDS011;21125;48.630;9.276;2022-08-01T01:38:45;4.65;;;3.60;;
34914;SDS011;21125;48.630;9.276;2022-08-01T01:41:13;3.58;;;3.28;;
34914;SDS011;21125;48.630;9.276;2022-08-01T01:43:40;2.97;;;2.67;;
34914;SDS011;21125;48.630;9.276;2022-08-01T01:46:06;6.90;;;4.18;;
34914;SDS011;21125;48.630;9.276;2022-08-01T01:48:33;5.85;;;3.85;;
34914;SDS011;21125;48.630;9.276;2022-08-01T01:51:00;3.75;;;3.45;;
34914;SDS011;21125;48.630;9.276;2022-08-01T01:53:27;3.67;;;3.38;;
34914;SDS011;21125;48.630;9.276;2022-08-01T01:55:53;4.03;;;3.70;;
34914;SDS011;21125;48.630;9.276;2022-08-01T01:58:21;3.88;;;3.58;;
34914;SDS011;21125;48.630;9.276;2022-08-01T02:00:48;3.53;;;3.28;;
34914;SDS011;21125;48.630;9.276;2022-08-01T02:03:14;4.47;;;3.25;;
34914;SDS011;21125;48.630;9.276;2022-08-01T02:05:41;5.13;;;3.40;;
34914;SDS011;21125;48.630;9.276;2022-08-01T02:08:08;3.92;;;3.63;;
34914;SDS011;21125;48.630;9.276;2022-08-01T02:10:35;3.80;;;3.50;;
34914;SDS011;21125;48.630;9.276;2022-08-01T02:13:03;3.13;;;2.92;;
34914;SDS011;21125;48.630;9.276;2022-08-01T02:15:30;5.40;;;3.97;;
34914;SDS011;21125;48.630;9.276;2022-08-01T02:17:56;4.38;;;3.97;;
34914;SDS011;21125;48.630;9.276;2022-08-01T02:20:24;4.60;;;3.95;;
34914;SDS011;21125;48.630;9.276;2022-08-01T02:23:01;4.80;;;4.40;;
34914;SDS011;21125;48.630;9.276;2022-08-01T02:25:36;3.70;;;3.40;;
34914;SDS011;21125;48.630;9.276;2022-08-01T02:28:04;3.95;;;3.50;;
34914;SDS011;21125;48.630;9.276;2022-08-01T02:30:32;3.70;;;3.30;;
34914;SDS011;21125;48.630;9.276;2022-08-01T02:33:05;3.75;;;3.38;;
34914;SDS011;21125;48.630;9.276;2022-08-01T02:35:32;3.53;;;3.22;;
34914;SDS011;21125;48.630;9.276;2022-08-01T02:38:00;3.75;;;3.42;;
34914;SDS011;21125;48.630;9.276;2022-08-01T02:40:27;4.25;;;3.80;;
34914;SDS011;21125;48.630;9.276;2022-08-01T02:42:54;4.40;;;3.60;;
34914;SDS011;21125;48.630;9.276;2022-08-01T02:45:22;3.92;;;3.70;;
34914;SDS011;21125;48.630;9.276;2022-08-01T02:47:50;3.70;;;3.40;;
34914;SDS011;21125;48.630;9.276;2022-08-01T02:50:17;4.15;;;3.67;;
34914;SDS011;21125;48.630;9.276;2022-08-01T02:52:44;10.38;;;4.85;;
34914;SDS011;21125;48.630;9.276;2022-08-01T02:55:11;5.82;;;4.85;;
34914;SDS011;21125;48.630;9.276;2022-08-01T02:57:37;4.10;;;3.35;;
34914;SDS011;21125;48.630;9.276;2022-08-01T03:00:05;3.88;;;3.58;;
34914;SDS011;21125;48.630;9.276;2022-08-01T03:02:32;4.25;;;3.85;;
34914;SDS011;21125;48.630;9.276;2022-08-01T03:04:58;4.25;;;3.47;;
34914;SDS011;21125;48.630;9.276;2022-08-01T03:07:24;6.10;;;4.05;;
34914;SDS011;21125;48.630;9.276;2022-08-01T03:09:51;6.43;;;3.83;;
34914;SDS011;21125;48.630;9.276;2022-08-01T03:12:18;4.18;;;3.78;;
34914;SDS011;21125;48.630;9.276;2022-08-01T03:14:45;4.15;;;3.80;;
34914;SDS011;21125;48.630;9.276;2022-08-01T03:17:12;5.18;;;3.55;;
34914;SDS011;21125;48.630;9.276;2022-08-01T03:19:38;4.78;;;3.90;;
34914;SDS011;21125;48.630;9.276;2022-08-01T03:22:08;3.80;;;3.55;;
34914;SDS011;21125;48.630;9.276;2022-08-01T03:24:35;3.42;;;3.22;;
34914;SDS011;21125;48.630;9.276;2022-08-01T03:27:02;4.40;;;3.20;;
34914;SDS011;21125;48.630;9.276;2022-08-01T03:29:28;4.05;;;3.75;;
34914;SDS011;21125;48.630;9.276;2022-08-01T03:31:55;3.67;;;3.33;;
34914;SDS011;21125;48.630;9.276;2022-08-01T03:34:21;4.22;;;3.85;;
34914;SDS011;21125;48.630;9.276;2022-08-01T03:36:49;3.80;;;3.50;;
34914;SDS011;21125;48.630;9.276;2022-08-01T03:39:18;3.83;;;3.53;;
34914;SDS011;21125;48.630;9.276;2022-08-01T03:41:51;4.53;;;4.13;;
34914;SDS011;21125;48.630;9.276;2022-08-01T03:44:23;5.80;;;3.85;;
34914;SDS011;21125;48.630;9.276;2022-08-01T03:46:51;4.60;;;4.20;;
34914;SDS011;21125;48.630;9.276;2022-08-01T03:49:21;4.28;;;3.95;;
34914;SDS011;21125;48.630;9.276;2022-08-01T03:51:49;4.95;;;4.38;;
34914;SDS011;21125;48.630;9.276;2022-08-01T03:54:23;4.18;;;3.72;;
34914;SDS011;21125;48.630;9.276;2022-08-01T03:56:50;4.60;;;4.18;;
34914;SDS011;21125;48.630;9.276;2022-08-01T03:59:17;4.07;;;3.78;;
34914;SDS011;21125;48.630;9.276;2022-08-01T04:01:44;4.22;;;3.83;;
34914;SDS011;21125;48.630;9.276;2022-08-01T04:04:10;4.35;;;3.95;;
34914;SDS011;21125;48.630;9.276;2022-08-01T04:06:37;5.35;;;3.97;;
34914;SDS011;21125;48.630;9.276;2022-08-01T04:09:03;4.40;;;4.07;;
34914;SDS011;21125;48.630;9.276;2022-08-01T04:11:29;4.68;;;4.28;;
34914;SDS011;21125;48.630;9.276;2022-08-01T04:13:56;4.40;;;4.00;;
34914;SDS011;21125;48.630;9.276;2022-08-01T04:16:22;5.57;;;3.97;;
34914;SDS011;21125;48.630;9.276;2022-08-01T04:18:48;5.00;;;4.38;;
34914;SDS011;21125;48.630;9.276;2022-08-01T04:21:14;4.57;;;3.85;;
34914;SDS011;21125;48.630;9.276;2022-08-01T04:23:43;4.20;;;3.90;;
34914;SDS011;21125;48.630;9.276;2022-08-01T04:26:10;4.32;;;4.03;;
34914;SDS011;21125;48.630;9.276;2022-08-01T04:28:38;5.63;;;3.55;;
34914;SDS011;21125;48.630;9.276;2022-08-01T04:31:06;4.80;;;4.30;;
34914;SDS011;21125;48.630;9.276;2022-08-01T04:33:37;3.97;;;3.67;;
34914;SDS011;21125;48.630;9.276;2022-08-01T04:36:04;4.53;;;3.80;;
34914;SDS011;21125;48.630;9.276;2022-08-01T04:38:33;4.88;;;4.47;;
34914;SDS011;21125;48.630;9.276;2022-08-01T04:41:01;4.20;;;3.85;;
34914;SDS011;21125;48.630;9.276;2022-08-01T04:43:27;6.97;;;3.95;;
34914;SDS011;21125;48.630;9.276;2022-08-01T04:45:53;5.22;;;3.70;;
34914;SDS011;21125;48.630;9.276;2022-08-01T04:48:20;6.05;;;3.83;;
34914;SDS011;21125;48.630;9.276;2022-08-01T04:50:47;5.20;;;3.35;;
34914;SDS011;21125;48.630;9.276;2022-08-01T04:53:17;3.97;;;3.45;;
34914;SDS011;21125;48.630;9.276;2022-08-01T04:55:44;5.40;;;3.30;;
34914;SDS011;21125;48.630;9.276;2022-08-01T04:58:11;3.42;;;3.13;;
34914;SDS011;21125;48.630;9.276;2022-08-01T05:00:37;6.10;;;3.85;;
34914;SDS011;21125;48.630;9.276;2022-08-01T05:03:03;4.97;;;3.95;;
34914;SDS011;21125;48.630;9.276;2022-08-01T05:05:29;3.78;;;3.35;;
34914;SDS011;21125;48.630;9.276;2022-08-01T05:07:58;3.72;;;3.30;;
34914;SDS011;21125;48.630;9.276;2022-08-01T05:10:25;6.03;;;4.57;;
34914;SDS011;21125;48.630;9.276;2022-08-01T05:12:51;4.05;;;3.63;;
34914;SDS011;21125;48.630;9.276;2022-08-01T05:15:17;7.10;;;4.20;;
34914;SDS011;21125;48.630;9.276;2022-08-01T05:17:43;7.80;;;4.55;;
34914;SDS011;21125;48.630;9.276;2022-08-01T05:20:09;4.07;;;3.78;;
34914;SDS011;21125;48.630;9.276;2022-08-01T05:22:36;6.53;;;2.95;;
34914;SDS011;21125;48.630;9.276;2022-08-01T05:25:02;3.40;;;2.67;;
34914;SDS011;21125;48.630;9.276;2022-08-01T05:27:29;2.58;;;2.38;;
34914;SDS011;21125;48.630;9.276;2022-08-01T05:29:55;3.35;;;2.22;;
34914;SDS011;21125;48.630;9.276;2022-08-01T05:32:21;5.38;;;3.20;;
34914;SDS011;21125;48.630;9.276;2022-08-01T05:34:47;3.05;;;2.40;;
34914;SDS011;21125;48.630;9.276;2022-08-01T05:37:13;4.70;;;2.55;;
34914;SDS011;21125;48.630;9.276;2022-08-01T05:39:40;3.15;;;2.55;;
34914;SDS011;21125;48.630;9.276;2022-08-01T05:42:06;3.72;;;2.55;;
34914;SDS011;21125;48.630;9.276;2022-08-01T05:44:31;5.43;;;3.00;;
34914;SDS011;21125;48.630;9.276;2022-08-01T05:46:57;2.80;;;2.45;;
34914;SDS011;21125;48.630;9.276;2022-08-01T05:49:23;2.40;;;2.30;;
34914;SDS011;21125;48.630;9.276;2022-08-01T05:51:49;3.63;;;2.55;;
34914;SDS011;21125;48.630;9.276;2022-08-01T05:54:15;4.07;;;2.60;;
34914;SDS011;21125;48.630;9.276;2022-08-01T05:56:41;2.25;;;2.10;;
34914;SDS011;21125;48.630;9.276;2022-08-01T05:59:07;3.53;;;2.33;;
34914;SDS011;21125;48.630;9.276;2022-08-01T06:01:33;2.30;;;2.10;;
34914;SDS011;21125;48.630;9.276;2022-08-01T06:03:59;3.10;;;2.30;;
34914;SDS011;21125;48.630;9.276;2022-08-01T06:06:25;3.25;;;2.20;;
34914;SDS011;21125;48.630;9.276;2022-08-01T06:08:51;2.42;;;2.10;;
34914;SDS011;21125;48.630;9.276;2022-08-01T06:11:17;2.20;;;2.05;;
34914;SDS011;21125;48.630;9.276;2022-08-01T06:13:43;2.85;;;2.28;;
34914;SDS011;21125;48.630;9.276;2022-08-01T06:16:09;3.13;;;2.83;;
34914;SDS011;21125;48.630;9.276;2022-08-01T06:18:35;2.05;;;1.95;;
34914;SDS011;21125;48.630;9.276;2022-08-01T06:21:01;1.92;;;1.83;;
34914;SDS011;21125;48.630;9.276;2022-08-01T06:23:27;2.58;;;2.38;;
34914;SDS011;21125;48.630;9.276;2022-08-01T06:25:53;2.50;;;2.30;;
34914;SDS011;21125;48.630;9.276;2022-08-01T06:28:19;3.78;;;2.40;;
34914;SDS011;21125;48.630;9.276;2022-08-01T06:30:45;3.00;;;2.80;;
34914;SDS011;21125;48.630;9.276;2022-08-01T06:33:11;4.38;;;2.83;;
34914;SDS011;21125;48.630;9.276;2022-08-01T06:35:37;2.67;;;2.45;;
34914;SDS011;21125;48.630;9.276;2022-08-01T06:38:03;3.22;;;2.40;;
34914;SDS011;21125;48.630;9.276;2022-08-01T06:40:29;3.30;;;3.10;;
34914;SDS011;21125;48.630;9.276;2022-08-01T06:42:55;2.78;;;2.58;;
34914;SDS011;21125;48.630;9.276;2022-08-01T06:45:21;2.72;;;2.53;;
34914;SDS011;21125;48.630;9.276;2022-08-01T06:47:47;2.75;;;2.53;;
34914;SDS011;21125;48.630;9.276;2022-08-01T06:50:13;7.60;;;2.55;;
34914;SDS011;21125;48.630;9.276;2022-08-01T06:52:40;2.42;;;2.08;;
34914;SDS011;21125;48.630;9.276;2022-08-01T06:55:06;2.38;;;2.20;;
34914;SDS011;21125;48.630;9.276;2022-08-01T06:57:32;4.43;;;2.22;;
34914;SDS011;21125;48.630;9.276;2022-08-01T07:00:00;2.28;;;2.08;;
34914;SDS011;21125;48.630;9.276;2022-08-01T07:02:26;2.55;;;2.33;;
34914;SDS011;21125;48.630;9.276;2022-08-01T07:04:52;3.05;;;2.28;;
34914;SDS011;21125;48.630;9.276;2022-08-01T07:07:18;2.78;;;2.00;;
34914;SDS011;21125;48.630;9.276;2022-08-01T07:09:44;2.47;;;2.20;;
34914;SDS011;21125;48.630;9.276;2022-08-01T07:12:10;2.65;;;2.25;;
34914;SDS011;21125;48.630;9.276;2022-08-01T07:14:36;2.30;;;2.03;;
34914;SDS011;21125;48.630;9.276;2022-08-01T07:17:02;3.00;;;2.47;;
34914;SDS011;21125;48.630;9.276;2022-08-01T07:19:28;3.00;;;2.70;;
34914;SDS011;21125;48.630;9.276;2022-08-01T07:21:54;2.75;;;2.42;;
34914;SDS011;21125;48.630;9.276;2022-08-01T07:24:20;2.40;;;2.08;;
34914;SDS011;21125;48.630;9.276;2022-08-01T07:26:46;4.03;;;2.58;;
34914;SDS011;21125;48.630;9.276;2022-08-01T07:29:13;2.55;;;1.90;;
34914;SDS011;21125;48.630;9.276;2022-08-01T07:31:39;2.92;;;2.30;;
34914;SDS011;21125;48.630;9.276;2022-08-01T07:34:04;3.63;;;2.30;;
34914;SDS011;21125;48.630;9.276;2022-08-01T07:36:30;3.05;;;2.15;;
34914;SDS011;21125;48.630;9.276;2022-08-01T07:38:56;1.83;;;1.73;;
34914;SDS011;21125;48.630;9.276;2022-08-01T07:41:22;2.20;;;2.10;;
34914;SDS011;21125;48.630;9.276;2022-08-01T07:43:48;2.60;;;2.08;;
34914;SDS011;21125;48.630;9.276;2022-08-01T07:46:15;2.22;;;2.00;;
34914;SDS011;21125;48.630;9.276;2022-08-01T07:48:41;5.70;;;2.30;;
34914;SDS011;21125;48.630;9.276;2022-08-01T07:51:07;3.88;;;2.25;;
34914;SDS011;21125;48.630;9.276;2022-08-01T07:53:35;3.88;;;2.42;;
34914;SDS011;21125;48.630;9.276;2022-08-01T07:56:01;2.20;;;2.10;;
34914;SDS011;21125;48.630;9.276;2022-08-01T07:58:27;2.13;;;2.03;;
34914;SDS011;21125;48.630;9.276;2022-08-01T08:00:53;2.03;;;1.88;;
34914;SDS011;21125;48.630;9.276;2022-08-01T08:03:19;1.92;;;1.73;;
34914;SDS011;21125;48.630;9.276;2022-08-01T08:05:45;2.00;;;1.90;;
34914;SDS011;21125;48.630;9.276;2022-08-01T08:08:11;2.63;;;1.83;;
34914;SDS011;21125;48.630;9.276;2022-08-01T08:10:38;2.30;;;1.88;;
34914;SDS011;21125;48.630;9.276;2022-08-01T08:13:05;2.90;;;1.77;;
34914;SDS011;21125;48.630;9.276;2022-08-01T08:15:31;1.70;;;1.60;;
34914;SDS011;21125;48.630;9.276;2022-08-01T08:17:56;5.85;;;1.90;;
34914;SDS011;21125;48.630;9.276;2022-08-01T08:20:23;2.45;;;2.28;;
34914;SDS011;21125;48.630;9.276;2022-08-01T08:22:53;2.42;;;2.00;;
34914;SDS011;21125;48.630;9.276;2022-08-01T08:25:19;2.10;;;2.00;;
34914;SDS011;21125;48.630;9.276;2022-08-01T08:27:45;2.97;;;2.03;;
34914;SDS011;21125;48.630;9.276;2022-08-01T08:30:11;3.40;;;1.77;;
34914;SDS011;21125;48.630;9.276;2022-08-01T08:32:39;3.45;;;1.80;;
34914;SDS011;21125;48.630;9.276;2022-08-01T08:35:05;2.10;;;1.90;;
34914;SDS011;21125;48.630;9.276;2022-08-01T08:37:32;2.45;;;1.92;;
34914;SDS011;21125;48.630;9.276;2022-08-01T08:39:59;1.80;;;1.63;;
34914;SDS011;21125;48.630;9.276;2022-08-01T08:42:25;2.83;;;1.73;;
34914;SDS011;21125;48.630;9.276;2022-08-01T08:44:51;3.42;;;1.60;;
34914;SDS011;21125;48.630;9.276;2022-08-01T08:47:19;1.50;;;1.40;;
34914;SDS011;21125;48.630;9.276;2022-08-01T08:49:45;2.65;;;1.63;;
34914;SDS011;21125;48.630;9.276;2022-08-01T08:52:11;1.95;;;1.63;;
34914;SDS011;21125;48.630;9.276;2022-08-01T08:54:38;1.92;;;1.63;;
34914;SDS011;21125;48.630;9.276;2022-08-01T08:57:06;2.33;;;2.13;;
34914;SDS011;21125;48.630;9.276;2022-08-01T08:59:35;2.33;;;1.77;;
34914;SDS011;21125;48.630;9.276;2022-08-01T09:02:02;2.53;;;2.33;;
34914;SDS011;21125;48.630;9.276;2022-08-01T09:04:29;2.88;;;1.67;;
34914;SDS011;21125;48.630;9.276;2022-08-01T09:06:56;3.97;;;1.70;;
34914;SDS011;21125;48.630;9.276;2022-08-01T09:09:22;2.10;;;2.00;;
34914;SDS011;21125;48.630;9.276;2022-08-01T09:11:49;3.03;;;1.95;;
34914;SDS011;21125;48.630;9.276;2022-08-01T09:14:18;1.90;;;1.50;;
34914;SDS011;21125;48.630;9.276;2022-08-01T09:16:58;1.90;;;1.80;;
34914;SDS011;21125;48.630;9.276;2022-08-01T09:19:25;2.35;;;1.85;;
34914;SDS011;21125;48.630;9.276;2022-08-01T09:21:56;2.03;;;1.92;;
34914;SDS011;21125;48.630;9.276;2022-08-01T09:24:24;2.60;;;2.10;;
34914;SDS011;21125;48.630;9.276;2022-08-01T09:26:50;2.85;;;2.20;;
34914;SDS011;21125;48.630;9.276;2022-08-01T09:29:20;2.03;;;1.92;;
34914;SDS011;21125;48.630;9.276;2022-08-01T09:31:46;2.55;;;1.73;;
34914;SDS011;21125;48.630;9.276;2022-08-01T09:34:12;2.90;;;1.75;;
34914;SDS011;21125;48.630;9.276;2022-08-01T09:36:46;2.10;;;1.90;;
34914;SDS011;21125;48.630;9.276;2022-08-01T09:39:16;2.30;;;2.10;;
34914;SDS011;21125;48.630;9.276;2022-08-01T09:41:42;2.35;;;2.25;;
34914;SDS011;21125;48.630;9.276;2022-08-01T09:44:08;4.47;;;2.20;;
34914;SDS011;21125;48.630;9.276;2022-08-01T09:46:34;3.30;;;2.50;;
34914;SDS011;21125;48.630;9.276;2022-08-01T09:49:04;4.78;;;2.42;;
34914;SDS011;21125;48.630;9.276;2022-08-01T09:53:57;3.55;;;2.58;;
34914;SDS011;21125;48.630;9.276;2022-08-01T09:56:24;2.95;;;2.08;;
34914;SDS011;21125;48.630;9.276;2022-08-01T09:58:51;2.10;;;1.90;;
34914;SDS011;21125;48.630;9.276;2022-08-01T10:01:18;2.60;;;1.92;;
34914;SDS011;21125;48.630;9.276;2022-08-01T10:03:45;2.70;;;2.17;;
34914;SDS011;21125;48.630;9.276;2022-08-01T10:06:29;3.58;;;2.30;;
34914;SDS011;21125;48.630;9.276;2022-08-01T10:08:55;2.22;;;2.10;;
34914;SDS011;21125;48.630;9.276;2022-08-01T10:11:21;2.45;;;2.30;;
34914;SDS011;21125;48.630;9.276;2022-08-01T10:13:47;2.75;;;2.30;;
34914;SDS011;21125;48.630;9.276;2022-08-01T10:16:14;2.92;;;2.58;;
34914;SDS011;21125;48.630;9.276;2022-08-01T10:18:40;2.55;;;2.35;;
34914;SDS011;21125;48.630;9.276;2022-08-01T10:21:07;3.50;;;2.47;;
34914;SDS011;21125;48.630;9.276;2022-08-01T10:23:35;2.70;;;2.50;;
34914;SDS011;21125;48.630;9.276;2022-08-01T10:26:01;3.25;;;2.88;;
34914;SDS011;21125;48.630;9.276;2022-08-01T10:28:29;3.17;;;2.90;;
34914;SDS011;21125;48.630;9.276;2022-08-01T10:30:59;2.72;;;2.45;;
34914;SDS011;21125;48.630;9.276;2022-08-01T10:33:25;2.92;;;2.40;;
34914;SDS011;21125;48.630;9.276;2022-08-01T10:35:51;2.78;;;2.58;;
34914;SDS011;21125;48.630;9.276;2022-08-01T10:38:17;2.85;;;2.65;;
34914;SDS011;21125;48.630;9.276;2022-08-01T10:40:43;3.22;;;2.55;;
34914;SDS011;21125;48.630;9.276;2022-08-01T10:43:10;2.60;;;2.40;;
34914;SDS011;21125;48.630;9.276;2022-08-01T10:45:36;3.45;;;2.70;;
34914;SDS011;21125;48.630;9.276;2022-08-01T10:48:22;3.30;;;3.10;;
34914;SDS011;21125;48.630;9.276;2022-08-01T10:50:51;4.55;;;3.80;;
34914;SDS011;21125;48.630;9.276;2022-08-01T10:53:21;4.10;;;3.80;;
34914;SDS011;21125;48.630;9.276;2022-08-01T10:58:13;4.70;;;4.30;;
34914;SDS011;21125;48.630;9.276;2022-08-01T11:00:39;5.38;;;4.88;;
34914;SDS011;21125;48.630;9.276;2022-08-01T11:03:05;5.00;;;4.60;;
34914;SDS011;21125;48.630;9.276;2022-08-01T11:05:31;5.13;;;4.72;;
34914;SDS011;21125;48.630;9.276;2022-08-01T11:07:58;4.85;;;4.55;;
34914;SDS011;21125;48.630;9.276;2022-08-01T11:12:54;4.70;;;4.30;;
34914;SDS011;21125;48.630;9.276;2022-08-01T11:15:21;4.53;;;4.22;;
34914;SDS011;21125;48.630;9.276;2022-08-01T11:17:51;5.60;;;4.30;;
34914;SDS011;21125;48.630;9.276;2022-08-01T11:20:18;5.43;;;4.93;;
34914;SDS011;21125;48.630;9.276;2022-08-01T11:25:23;4.40;;;4.00;;
34914;SDS011;21125;48.630;9.276;2022-08-01T11:27:49;6.15;;;4.10;;
34914;SDS011;21125;48.630;9.276;2022-08-01T11:30:35;5.50;;;4.10;;
34914;SDS011;21125;48.630;9.276;2022-08-01T11:33:01;4.53;;;4.13;;
34914;SDS011;21125;48.630;9.276;2022-08-01T11:35:27;4.25;;;3.95;;
34914;SDS011;21125;48.630;9.276;2022-08-01T11:37:53;5.88;;;4.47;;
34914;SDS011;21125;48.630;9.276;2022-08-01T11:40:24;4.63;;;4.30;;
34914;SDS011;21125;48.630;9.276;2022-08-01T11:43:16;4.63;;;4.22;;
34914;SDS011;21125;48.630;9.276;2022-08-01T11:45:50;4.65;;;4.25;;
34914;SDS011;21125;48.630;9.276;2022-08-01T11:48:23;4.80;;;4.40;;
34914;SDS011;21125;48.630;9.276;2022-08-01T11:50:50;4.30;;;3.90;;
34914;SDS011;21125;48.630;9.276;2022-08-01T11:53:16;4.82;;;4.43;;
34914;SDS011;21125;48.630;9.276;2022-08-01T11:55:48;5.60;;;4.53;;
34914;SDS011;21125;48.630;9.276;2022-08-01T11:58:14;5.13;;;4.32;;
34914;SDS011;21125;48.630;9.276;2022-08-01T12:00:40;5.10;;;4.50;;
34914;SDS011;21125;48.630;9.276;2022-08-01T12:03:07;4.72;;;4.32;;
34914;SDS011;21125;48.630;9.276;2022-08-01T12:05:34;3.90;;;3.60;;
34914;SDS011;21125;48.630;9.276;2022-08-01T12:08:02;3.85;;;3.53;;
34914;SDS011;21125;48.630;9.276;2022-08-01T12:10:29;3.03;;;2.78;;
34914;SDS011;21125;48.630;9.276;2022-08-01T12:13:02;3.03;;;2.80;;
34914;SDS011;21125;48.630;9.276;2022-08-01T12:15:29;3.55;;;3.05;;
34914;SDS011;21125;48.630;9.276;2022-08-01T12:17:56;3.20;;;3.00;;
34914;SDS011;21125;48.630;9.276;2022-08-01T12:20:22;4.43;;;3.10;;
34914;SDS011;21125;48.630;9.276;2022-08-01T12:22:53;3.05;;;2.85;;
34914;SDS011;21125;48.630;9.276;2022-08-01T12:25:19;4.97;;;3.50;;
34914;SDS011;21125;48.630;9.276;2022-08-01T12:27:46;3.33;;;3.00;;
34914;SDS011;21125;48.630;9.276;2022-08-01T12:30:13;3.90;;;2.85;;
34914;SDS011;21125;48.630;9.276;2022-08-01T12:32:40;3.78;;;3.10;;
34914;SDS011;21125;48.630;9.276;2022-08-01T12:35:08;4.47;;;3.13;;
34914;SDS011;21125;48.630;9.276;2022-08-01T12:37:38;4.45;;;2.72;;
34914;SDS011;21125;48.630;9.276;2022-08-01T12:40:09;3.30;;;3.10;;
34914;SDS011;21125;48.630;9.276;2022-08-01T12:42:36;3.78;;;2.92;;
34914;SDS011;21125;48.630;9.276;2022-08-01T12:45:02;4.13;;;3.05;;
34914;SDS011;21125;48.630;9.276;2022-08-01T12:47:28;3.58;;;2.70;;
34914;SDS011;21125;48.630;9.276;2022-08-01T12:49:54;3.00;;;2.80;;
34914;SDS011;21125;48.630;9.276;2022-08-01T12:52:20;2.92;;;2.72;;
34914;SDS011;21125;48.630;9.276;2022-08-01T12:55:03;3.17;;;2.83;;
34914;SDS011;21125;48.630;9.276;2022-08-01T12:57:29;2.70;;;2.50;;
34914;SDS011;21125;48.630;9.276;2022-08-01T13:00:06;3.40;;;2.63;;
34914;SDS011;21125;48.630;9.276;2022-08-01T13:02:32;2.70;;;2.50;;
34914;SDS011;21125;48.630;9.276;2022-08-01T13:04:59;4.70;;;2.88;;
34914;SDS011;21125;48.630;9.276;2022-08-01T13:07:41;2.90;;;2.50;;
34914;SDS011;21125;48.630;9.276;2022-08-01T13:10:08;3.28;;;2.65;;
34914;SDS011;21125;48.630;9.276;2022-08-01T13:12:34;2.88;;;2.58;;
34914;SDS011;21125;48.630;9.276;2022-08-01T13:15:15;2.50;;;2.30;;
34914;SDS011;21125;48.630;9.276;2022-08-01T13:17:41;2.30;;;2.10;;
34914;SDS011;21125;48.630;9.276;2022-08-01T13:20:07;2.25;;;2.13;;
34914;SDS011;21125;48.630;9.276;2022-08-01T13:22:34;3.75;;;2.50;;
34914;SDS011;21125;48.630;9.276;2022-08-01T13:25:14;4.35;;;2.47;;
34914;SDS011;21125;48.630;9.276;2022-08-01T13:27:40;4.53;;;2.97;;
34914;SDS011;21125;48.630;9.276;2022-08-01T13:30:10;2.70;;;2.50;;
34914;SDS011;21125;48.630;9.276;2022-08-01T13:32:36;5.68;;;2.10;;
34914;SDS011;21125;48.630;9.276;2022-08-01T13:35:04;2.22;;;2.13;;
34914;SDS011;21125;48.630;9.276;2022-08-01T13:37:30;5.85;;;2.72;;
34914;SDS011;21125;48.630;9.276;2022-08-01T13:39:56;2.72;;;2.53;;
34914;SDS011;21125;48.630;9.276;2022-08-01T13:42:22;2.75;;;2.55;;
34914;SDS011;21125;48.630;9.276;2022-08-01T13:44:48;2.78;;;2.50;;
34914;SDS011;21125;48.630;9.276;2022-08-01T13:47:14;3.15;;;2.95;;
34914;SDS011;21125;48.630;9.276;2022-08-01T13:49:40;3.65;;;2.50;;
34914;SDS011;21125;48.630;9.276;2022-08-01T13:52:06;3.95;;;2.35;;
34914;SDS011;21125;48.630;9.276;2022-08-01T13:54:33;3.47;;;3.17;;
34914;SDS011;21125;48.630;9.276;2022-08-01T13:56:59;3.45;;;2.67;;
34914;SDS011;21125;48.630;9.276;2022-08-01T13:59:25;2.95;;;2.75;;
34914;SDS011;21125;48.630;9.276;2022-08-01T14:01:51;3.08;;;2.60;;
34914;SDS011;21125;48.630;9.276;2022-08-01T14:04:17;5.85;;;2.55;;
34914;SDS011;21125;48.630;9.276;2022-08-01T14:06:44;5.63;;;2.55;;
34914;SDS011;21125;48.630;9.276;2022-08-01T14:09:10;2.88;;;2.42;;
34914;SDS011;21125;48.630;9.276;2022-08-01T14:11:36;3.00;;;2.10;;
34914;SDS011;21125;48.630;9.276;2022-08-01T14:14:02;2.85;;;2.28;;
34914;SDS011;21125;48.630;9.276;2022-08-01T14:16:28;3.78;;;1.88;;
34914;SDS011;21125;48.630;9.276;2022-08-01T14:18:53;2.65;;;2.45;;
34914;SDS011;21125;48.630;9.276;2022-08-01T14:21:19;2.47;;;2.30;;
34914;SDS011;21125;48.630;9.276;2022-08-01T14:23:45;2.88;;;2.58;;
34914;SDS011;21125;48.630;9.276;2022-08-01T14:26:11;1.52;;;1.42;;
34914;SDS011;21125;48.630;9.276;2022-08-01T14:28:38;2.30;;;2.10;;
34914;SDS011;21125;48.630;9.276;2022-08-01T14:31:04;2.20;;;2.10;;
34914;SDS011;21125;48.630;9.276;2022-08-01T14:33:33;3.70;;;2.35;;
34914;SDS011;21125;48.630;9.276;2022-08-01T14:35:59;2.53;;;2.30;;
34914;SDS011;21125;48.630;9.276;2022-08-01T14:38:25;2.45;;;2.05;;
34914;SDS011;21125;48.630;9.276;2022-08-01T14:40:52;5.47;;;2.15;;
34914;SDS011;21125;48.630;9.276;2022-08-01T14:43:18;3.95;;;2.33;;
34914;SDS011;21125;48.630;9.276;2022-08-01T14:45:44;4.00;;;2.40;;
34914;SDS011;21125;48.630;9.276;2022-08-01T14:48:14;3.20;;;2.58;;
34914;SDS011;21125;48.630;9.276;2022-08-01T14:50:40;2.05;;;1.95;;
34914;SDS011;21125;48.630;9.276;2022-08-01T14:53:06;2.47;;;2.28;;
34914;SDS011;21125;48.630;9.276;2022-08-01T14:55:32;5.70;;;2.38;;
34914;SDS011;21125;48.630;9.276;2022-08-01T14:57:58;2.28;;;1.77;;
34914;SDS011;21125;48.630;9.276;2022-08-01T15:00:24;3.60;;;2.22;;
34914;SDS011;21125;48.630;9.276;2022-08-01T15:02:50;2.22;;;1.92;;
34914;SDS011;21125;48.630;9.276;2022-08-01T15:05:16;2.53;;;2.05;;
34914;SDS011;21125;48.630;9.276;2022-08-01T15:07:42;6.00;;;2.88;;
34914;SDS011;21125;48.630;9.276;2022-08-01T15:10:08;2.95;;;2.22;;
34914;SDS011;21125;48.630;9.276;2022-08-01T15:12:34;3.30;;;2.10;;